UK Observations

KGNC 140835Z AUTO 20003KT 10SM CLR 20/19 A3000 RMK AO2 T01970189 EGAA 140820Z 23009KT 9999 BKN009 16/15 Q1012 EGAC 140820Z AUTO 22008KT 9999 BKN011/// OVC015/// 17/15 Q1012 EGAE 140820Z 23012KT 8000 -SHRA SCT008 BKN012 OVC030 17/16 Q1011 EGBB 140820Z 25005KT 200V280 9999 BKN034 18/13 Q1015 EGBJ 140820Z 23004KT 9999 BKN038 18/14 Q1016 EGCC 140820Z AUTO 21004KT 9999 OVC039 16/14 Q1014 NOSIG EGFF 140820Z 27010KT 9999 SCT009 BKN013 BKN027 19/16 Q1016 EGGD 140820Z AUTO 22005KT 9999 OVC030 17/16 Q1017 EGGP 140820Z 27008KT 9999 FEW018 BKN028 18/14 Q1014 EGGW 140820Z AUTO 27009KT 9999 OVC037 17/13 Q1016 EGHE 140820Z 29010KT 9999 FEW003 BKN009 OVC012 17/17 Q1019 EGHH 140820Z 28007KT 9999 SCT037 BKN048 19/15 Q1017 EGHI 140820Z VRB03KT 9999 FEW020 SCT040 17/12 Q1017 EGJA 140820Z 27007KT 250V310 9999 BKN033 17/16 Q1019 EGJB 140820Z 27010KT 9999 FEW005 BKN042 18/16 Q1019 EGJJ 140820Z 28011KT 9999 SCT006 BKN034 18/16 Q1019 EGKA 140820Z 20002KT 9999 FEW045 19/14 Q1016 EGKB 140820Z 25006KT 210V290 9999 BKN041 16/13 Q1016 EGKK 140820Z VRB03KT 9999 FEW012 SCT043 17/14 Q1016 EGLC 140820Z AUTO 25009KT 9999 OVC042 18/13 Q1016 EGLF 140820Z 25006KT 9999 FEW016 SCT044 18/14 Q1016 EGLL 140820Z AUTO 27007KT 9999 OVC039 17/13 Q1016 NOSIG EGMC 140820Z 29009KT 250V330 9999 FEW047 19/12 Q1015 EGMD 140820Z 30009KT 270V330 CAVOK 19/14 Q1016 EGNH 140820Z 24013KT 9999 SCT009 BKN024 18/16 Q1014 EGNJ 140820Z 29007KT 250V330 9999 FEW020 SCT025 19/13 Q1013 EGNM 140820Z 25008KT 210V280 9999 FEW013 SCT020 16/14 Q1014 EGNS 140820Z 24012KT 9999 -DZ FEW005 BKN007 BKN043 17/15 Q1013 NOSIG EGNT 140820Z 25007KT 9999 BKN013 16/14 Q1012 EGNV 140820Z 20006KT 9999 SCT045 17/13 Q1012 EGPA 140820Z 23003KT 9999 VCSH FEW002 SCT004 BKN040 14/13 Q1007 EGPB 140820Z 21005KT 9999 FEW017 BKN021 14/12 Q1008 NOSIG EGPC 140820Z 22004KT 9999 FEW003 SCT039 15/14 Q1007 EGPD 140820Z AUTO VRB02KT 9999 NCD 17/12 Q1008 NOSIG EGPE 140820Z 24012KT 9999 FEW008 SCT032 16/14 Q1008 EGPF 140820Z AUTO 23007KT 9999 SCT013 OVC018 16/14 Q1011 EGPH 140820Z 24009KT 9999 FEW010 BKN022 15/14 Q1010 EGPK 140820Z 23009KT 9999 -RA FEW010 SCT025 16/14 Q1012 EGPL 140820Z 23009KT 4500 -RADZ BKN004 BKN025 14/14 Q1007 EGPM 140820Z 18008KT 9999 FEW024 14/08 Q1007 NOSIG EGPN 140820Z 25006KT 9999 SCT013 16/14 Q1009 EGPO 140820Z 20008KT 9999 -SHRA SCT006 BKN013 BKN021 14/13 Q1006 EGPU 140820Z 21011KT 9000 -RA SCT003 BKN016 14/14 Q1008 EGSC 140820Z 29007KT 9999 FEW020 BKN040 17/12 Q1015 EGSH 140820Z 26007KT 9999 SCT010 BKN015 17/15 Q1014 NOSIG EGSS 140820Z 28007KT 9999 FEW020 BKN042 18/13 Q1016 EGTC 140820Z 24006KT 9999 BKN040 17/14 Q1015 EGTE 140820Z 27006KT 240V300 9999 SCT016 18/15 Q1017 EGVA 140811Z AUTO 00000KT 9999 BKN042 18/14 A3000 RMK AO2 SLP161 $ EGXT 140812Z 29009KT 9999 SCT018 SCT180 18/13 Q1014 WHT KGNC 140815Z AUTO 18005KT 10SM CLR 20/19 A3000 RMK AO2 T02000190 EGCN 140820Z 26009KT 9999 FEW024 19/13 Q1014 EGEC 140820Z 23007KT 210V270 5000 -RA FEW012 BKN016 15/14 Q1011 EGHQ 140820Z 29011KT 9999 BKN010 17/15 Q1018 EGNO 140820Z 26014KT 9999 FEW012 BKN025 18/15 Q1014 EGNR 140820Z VRB02KT 9999 FEW018 BKN040 18/14 Q1015 EGPI 140820Z 19009KT 150V220 5000 -RADZ FEW004 SCT007 BKN012 15/14 Q1010 EGTK 140820Z 25006KT 9999 SCT040 17/14 Q1016 EGAA 140750Z 22008KT 9999 SCT007 BKN010 15/14 Q1012 EGAC 140750Z AUTO 21008KT 9999 SCT009/// BKN014/// BKN022/// 16/15 Q1012 EGAE 140750Z 22011KT 8000 VCSH SCT008 BKN012 OVC030 17/15 Q1011 EGBB 140750Z 25005KT 220V280 9999 SCT041 18/13 Q1015 EGBJ 140750Z 23004KT 9999 SCT038 18/14 Q1016 EGCC 140750Z AUTO VRB03KT 9999 OVC037 15/13 Q1014 NOSIG EGDM 140750Z 26006KT 9999 FEW012 BKN035 17/14 Q1017 BLU EGDR 140750Z 27005KT 9999 -DZ FEW003 SCT008 OVC012 17/16 Q1018 GRN TEMPO 3000 -DZ BR SCT003 BKN010 YLO2 EGDY 140750Z AUTO 25008KT 9999 BKN049/// 19/16 Q1017 EGFF 140750Z 26011KT 9999 SCT007 SCT026 BKN038 18/17 Q1016 EGGD 140750Z AUTO 22005KT 9999 OVC031 17/15 Q1017 EGGP 140750Z 26007KT 9999 FEW026 SCT037 18/14 Q1014 EGGW 140750Z AUTO 25007KT 9999 OVC036 17/13 Q1016 EGHE 140750Z 29009KT 9000 FEW003 BKN007 OVC010 17/17 Q1019 EGHH 140750Z 27005KT 9999 SCT037 BKN045 18/15 Q1017 EGHI 140750Z VRB03KT 9999 FEW025 SCT045 17/13 Q1017 EGJA 140750Z 28008KT 9999 BKN035 16/15 Q1018 EGJB 140750Z 28010KT 9999 FEW005 SCT034 BKN043 17/16 Q1019 EGJJ 140750Z 28010KT 9999 FEW006 BKN034 17/16 Q1019 EGKB 140750Z 24006KT 200V280 9999 BKN040 16/13 Q1016 EGKK 140750Z VRB03KT 9999 BKN042 17/14 Q1016 EGLC 140750Z AUTO 24008KT 210V270 9999 OVC044 18/13 Q1016 EGLF 140750Z 25007KT 210V270 9999 BKN042 17/14 Q1016 EGLL 140750Z AUTO 30006KT 9999 OVC043 17/13 Q1016 NOSIG EGMC 140750Z 29007KT 260V320 CAVOK 18/12 Q1015 EGMD 140750Z 30010KT CAVOK 19/14 Q1016 EGNH 140750Z 25013KT 9999 SCT011 SCT026 18/16 Q1014 EGNJ 140750Z 28008KT 240V310 9999 FEW020 SCT033 BKN038 18/13 Q1013 EGNM 140750Z 23005KT 190V270 9999 FEW011 16/13 Q1013 EGNS 140750Z 23010KT 9999 BKN005 OVC006 16/15 Q1013 NOSIG EGNT 140750Z 25006KT 9999 BKN011 16/13 Q1012 EGNV 140750Z 20006KT 9999 SCT030 16/13 Q1012 EGNX 140750Z 26009KT CAVOK 17/14 Q1015 EGOS 140750Z 23010KT 9999 FEW020 SCT050 18/14 Q1014 BLU TEMPO SCT022 WHT EGOV 140750Z 23010KT 9999 FEW007 SCT019 BKN050 17/15 Q1014 WHT TEMPO 6000 -RADZ SCT007 GRN EGPA 140750Z 22003KT 9999 VCSH FEW002 BKN004 BKN006 14/13 Q1007 EGPB 140750Z 19006KT 9999 FEW015 BKN024 14/11 Q1008 NOSIG EGPC 140750Z 21003KT 9999 FEW002 BKN036 15/14 Q1007 EGPD 140750Z VRB01KT 9999 FEW025 17/12 Q1008 NOSIG EGPE 140750Z 22010KT 9999 FEW008 SCT033 16/14 Q1008 EGPF 140750Z AUTO 21007KT 9999 BKN011 OVC022 15/14 Q1011 EGPH 140750Z 24008KT 9999 BKN010 15/14 Q1010 EGPK 140750Z 23009KT 9999 FEW009 SCT025 16/14 Q1012 EGPL 140750Z 22011KT 9999 -RADZ SCT007 OVC037 14/14 Q1006 RETS EGPM 140750Z 18008KT 140V210 9999 FEW024 14/09 Q1007 NOSIG EGPN 140750Z 25008KT 9999 SCT011 16/14 Q1009 EGPO 140750Z 19010KT 9999 -SHRA FEW006 SCT017 BKN026 14/13 Q1006 EGPU 140750Z 22011KT 5000 RA BR SCT003 BKN011 14/14 Q1008 EGQK 140750Z AUTO 22006KT 9999 FEW041/// BKN150/// 16/13 Q1008 EGQL 140750Z 25013KT 9999 SCT014 BKN060 16/14 Q1009 GRN EGQM 140750Z AUTO 22007KT 9999 BKN038/// SCT060/// BKN190/// 16/13 Q1011 EGQS 140750Z 21005KT 9999 FEW003 BKN160 BKN200 17/13 Q1008 BLU NOSIG EGSC 140750Z 30007KT 9999 BKN039 17/12 Q1015 EGSH 140750Z 27008KT 9999 SCT010 BKN015 17/15 Q1014 NOSIG EGSS 140750Z AUTO 30007KT 260V320 9999 OVC042 18/13 Q1015 EGTC 140750Z 26007KT 220V320 9999 BKN037 17/14 Q1015 EGTE 140750Z VRB03KT 9999 FEW015 SCT032 18/15 Q1017 EGUB 140750Z 19004KT 9999 BKN040 16/14 Q1016 BLU NOSIG EGUL 140756Z AUTO 26007KT 9999 OVC037 17/13 A2995 RMK AO2 SLP145 T01650130 $ EGUN 140756Z AUTO 27007KT 9999 OVC036 16/16 A2996 RMK AO2 SLP148 T01640164 $ EGUN 140756Z AUTO 27007KT 9999 OVC036 16/16 A2996 RMK AO2 SLP148 T01640164 . EGVA 140756Z AUTO 24003KT 9999 CLR 17/14 A3000 RMK AO2 SLP161 T01730142 $ EGVN 140750Z 26004KT 9999 FEW020 SCT041 BKN080 17/13 Q1016 BLU NOSIG EGVN 140750Z 26004KT 9999 FEW020 SCT041 BKN080 17/13 Q1016 NOSIG EGWU 140750Z 29005KT 9999 FEW013 OVC042 16/13 Q1016 BLU NOSIG EGWU 140750Z 29005KT 9999 FEW013 OVC042 16/13 Q1016 NOSIG EGXC 140750Z 28009KT 9999 FEW020 BKN040 17/13 Q1014 BLU NOSIG EGXT 140750Z 27010KT 9999 FEW020 SCT210 18/13 Q1014 BLU EGYD 140750Z 25010KT 9999 FEW012 SCT180 17/14 Q1014 BLU NOSIG GBYD 140800Z VRB02KT 9999 SCT011 BKN11024/22 Q1014 GBYD 140800Z VRB02KT 9999 SCT011 BKN110 24/23 Q1014 KGNC 140755Z AUTO 19007KT 10SM CLR 20/19 A3001 RMK AO2 T02020192 EGCN 140750Z 28007KT 240V310 9999 FEW035 19/13 Q1014 EGDX 140750Z 26011KT 9999 SCT008 SCT014 BKN027 18/16 Q1016 GRN EGEC 140750Z 18005KT 9999 BKN024 BKN048 16/14 Q1010 EGHQ 140750Z 28011KT 9999 BKN012 16/15 Q1018 EGNO 140750Z 26012KT 9999 FEW012 BKN025 17/15 Q1013 EGNR 140750Z VRB03KT 9999 FEW018 BKN040 19/14 Q1015 EGOM 140750Z 26011KT 9999 7000SE BKN004 14/14 Q1012 YLO2 EGOP 140750Z 27013KT 9999 BKN011 18/15 Q1016 GRN EGOW 140750Z 26011KT 9999 SCT015 BKN020 17/14 Q1014 WHT EGPI 140750Z 19009KT 160V230 4000 -RADZ BR FEW003 BKN006 14/14 Q1010 EGUW 140750Z 30008KT 9999 FEW018 17/13 Q1014 BLU NOSIG EGVO 140750Z 25006KT 9999 FEW012 BKN045 18/14 Q1016 BLU EGVP 140750Z 28005KT 9999 FEW016 BKN035 18/14 Q1016 BLU NOSIG EGWC 140750Z 19004KT 9999 SCT040 17/14 Q1015 BLU EGXE 140750Z 24005KT 9999 FEW017 SCT040 BKN180 17/13 Q1012 BLU TEMPO SCT017 WHT EGXP 140750Z 28010KT 9999 BKN040 18/13 Q1013 BLU EGXS 140750Z 28010KT 9999 BKN035 17/13 Q1013 BLU EGXU 140750Z 24005KT 9999 FEW016 BKN040 BKN180 17/13 Q1013 BLU NOSIG EGXV 140750Z AUTO 27008KT 9999 BKN036/// SCT043/// BKN190/// 17/14 Q1013 EGXW 140750Z 25007KT 9999 FEW014 17/13 Q1014 BLU NOSIG EGXZ 140750Z 24005KT 9999 BKN040 SCT180 18/14 Q1013 BLU EGYE 140750Z 26010KT 9999 FEW012 SCT180 ///// Q1014 BLU EGYH 140750Z 27010KT 9999 SCT035 BKN050 17/14 Q1004 BLU EGYM 140750Z 28009KT 9999 FEW020 BKN035 17/13 Q1014 BLU NOSIG EGTK 140750Z 24005KT 9999 BKN037 16/14 Q1015